Time;durP1;ratioP1;P1;durP2;ratioP2;P2;SDS_P1;SDS_P2;PMS_P1;PMS_P2;Temp;Humidity;BMP_temperature;BMP_pressure;BME280_temperature;BME280_humidity;BME280_pressure;Samples;Min_cycle;Max_cycle;Signal;HPM_P1;HPM_P2
2021/06/15 00:01:58;;;;;;;6.10;3.20;;;;;;;23.36;47.66;101890.66;5073342;28;20017;-59
2021/06/15 00:04:23;;;;;;;5.97;3.53;;;;;;;23.35;47.46;101887.19;5073769;28;20104;-59
2021/06/15 00:06:51;;;;;;;6.07;3.08;;;;;;;23.36;47.62;101886.19;5072752;28;20342;-59
2021/06/15 00:09:17;;;;;;;5.60;3.03;;;;;;;23.36;47.51;101886.19;5072795;28;20119;-59
2021/06/15 00:11:42;;;;;;;5.63;3.53;;;;;;;23.35;47.77;101883.66;5073838;28;20115;-59
2021/06/15 00:14:07;;;;;;;4.82;3.22;;;;;;;23.36;47.59;101888.00;5073340;28;20039;-58
2021/06/15 00:16:33;;;;;;;5.22;3.17;;;;;;;23.21;47.43;101860.94;5072720;28;20122;-58
2021/06/15 00:18:58;;;;;;;5.35;2.90;;;;;;;23.33;47.66;101880.28;5073707;28;20036;-54
2021/06/15 00:21:23;;;;;;;5.88;3.58;;;;;;;23.35;47.65;101883.66;5073142;28;20028;-60
2021/06/15 00:23:49;;;;;;;5.18;3.00;;;;;;;23.30;47.89;101876.06;5072729;28;20016;-59
2021/06/15 00:26:15;;;;;;;5.82;3.00;;;;;;;23.31;48.07;101883.09;5073539;28;20032;-58
2021/06/15 00:28:40;;;;;;;5.25;3.22;;;;;;;23.31;47.82;101877.78;5074775;28;20431;-59
2021/06/15 00:31:08;;;;;;;6.00;3.35;;;;;;;23.33;47.95;101880.28;5074223;28;20082;-59
2021/06/15 00:33:34;;;;;;;5.13;2.70;;;;;;;23.32;47.87;101879.47;5073852;28;20024;-59
2021/06/15 00:35:59;;;;;;;6.35;3.25;;;;;;;23.31;47.98;101882.25;5073410;28;20081;-59
2021/06/15 00:38:24;;;;;;;5.93;2.83;;;;;;;23.31;47.87;101880.44;5072187;28;20414;-60
2021/06/15 00:40:50;;;;;;;4.53;3.03;;;;;;;23.31;47.87;101880.44;5073359;28;20365;-59
2021/06/15 00:43:18;;;;;;;4.97;3.00;;;;;;;23.32;47.89;101883.91;5073273;28;20028;-59
2021/06/15 00:45:43;;;;;;;5.32;2.90;;;;;;;23.31;47.89;101887.56;5072742;28;20381;-60
2021/06/15 00:48:26;;;;;;;5.97;3.35;;;;;;;23.30;47.92;101884.06;5073240;28;20021;-60
2021/06/15 00:50:51;;;;;;;5.15;3.17;;;;;;;23.31;47.87;101884.91;5072758;28;20099;-59
2021/06/15 00:53:17;;;;;;;5.55;2.92;;;;;;;23.30;47.88;101885.88;5071862;28;20409;-59
2021/06/15 00:55:42;;;;;;;4.75;2.88;;;;;;;23.28;48.06;101886.00;5072895;28;20028;-60
2021/06/15 00:58:07;;;;;;;5.50;2.78;;;;;;;23.27;48.18;101886.16;5072247;28;20036;-58
2021/06/15 01:00:33;;;;;;;7.00;3.42;;;;;;;23.28;48.17;101893.16;5072442;28;20408;-58
2021/06/15 01:02:58;;;;;;;4.68;3.20;;;;;;;23.28;48.16;101893.16;5072535;28;20023;-60
2021/06/15 01:05:26;;;;;;;4.95;3.10;;;;;;;23.28;48.22;101898.47;5071628;28;20102;-59
2021/06/15 01:08:06;;;;;;;5.53;2.97;;;;;;;23.27;48.09;101900.28;5072620;28;20028;-59
2021/06/15 01:11:11;;;;;;;5.57;2.85;;;;;;;23.28;48.10;101898.47;5072879;28;20035;-59
2021/06/15 01:14:05;;;;;;;5.25;3.22;;;;;;;23.27;48.21;101902.09;5071732;28;20120;-59
2021/06/15 01:16:50;;;;;;;6.68;3.33;;;;;;;23.27;48.09;101904.75;5071992;28;20444;-58
2021/06/15 01:19:36;;;;;;;5.63;3.20;;;;;;;23.26;48.24;101909.25;5071111;28;20064;-58
2021/06/15 01:22:19;;;;;;;4.68;2.88;;;;;;;23.26;48.37;101903.09;5072102;28;20029;-58
2021/06/15 01:24:57;;;;;;;5.45;3.50;;;;;;;23.25;48.37;101915.53;5072345;28;20028;-60
2021/06/15 01:27:22;;;;;;;5.95;3.13;;;;;;;23.24;48.18;101910.34;5071275;28;20027;-60
2021/06/15 01:29:50;;;;;;;6.43;3.07;;;;;;;23.25;48.38;101914.69;5072081;28;20056;-60
2021/06/15 01:32:23;;;;;;;6.30;2.97;;;;;;;23.22;48.20;101909.66;5071911;28;20035;-59
2021/06/15 01:34:51;;;;;;;5.25;3.40;;;;;;;23.25;48.27;101909.38;5071624;28;20032;-58
2021/06/15 01:37:19;;;;;;;5.80;3.28;;;;;;;23.23;48.32;101914.84;5071953;28;20034;-59
2021/06/15 01:39:50;;;;;;;4.30;2.65;;;;;;;23.23;48.30;101908.69;5072138;28;20075;-59
2021/06/15 01:42:20;;;;;;;5.80;3.15;;;;;;;23.22;48.50;101917.63;5071007;28;20086;-60
2021/06/15 01:44:58;;;;;;;5.43;3.28;;;;;;;23.22;48.46;101915.78;5072381;28;20043;-60
2021/06/15 01:47:28;;;;;;;5.10;2.83;;;;;;;23.23;48.45;101922.81;5070964;28;20029;-58
2021/06/15 01:49:58;;;;;;;5.55;3.10;;;;;;;23.18;48.40;101925.88;5072218;28;20021;-58
2021/06/15 01:52:38;;;;;;;4.20;2.60;;;;;;;23.22;48.50;101926.44;5071583;28;20021;-60
2021/06/15 01:55:06;;;;;;;5.97;3.08;;;;;;;23.22;48.53;101930.91;5070688;28;20063;-58
2021/06/15 01:57:32;;;;;;;5.32;3.03;;;;;;;23.22;48.54;101930.91;5071713;28;20032;-59
2021/06/15 02:00:06;;;;;;;5.05;3.30;;;;;;;23.21;48.63;101935.41;5071843;28;20032;-58
2021/06/15 02:02:33;;;;;;;6.15;3.33;;;;;;;23.21;48.55;101934.53;5071071;28;20020;-58
2021/06/15 02:04:58;;;;;;;4.47;2.58;;;;;;;23.20;48.57;101927.56;5071612;28;20028;-58
2021/06/15 02:07:29;;;;;;;6.72;3.45;;;;;;;23.21;48.46;101937.19;5071614;28;20021;-58
2021/06/15 02:09:58;;;;;;;5.07;3.10;;;;;;;23.19;48.58;101940.00;5071215;28;20020;-58
2021/06/15 02:12:28;;;;;;;6.80;3.20;;;;;;;23.20;48.49;101935.53;5071310;28;20492;-58
2021/06/15 02:14:59;;;;;;;6.15;3.20;;;;;;;23.20;48.52;101940.84;5071715;28;20147;-60
2021/06/15 02:17:26;;;;;;;6.15;3.22;;;;;;;23.20;48.40;101946.16;5070723;28;20069;-60
2021/06/15 02:19:52;;;;;;;5.65;3.20;;;;;;;23.18;48.66;101944.47;5071655;28;20021;-60
2021/06/15 02:22:21;;;;;;;5.03;3.00;;;;;;;23.17;48.76;101947.25;5071351;28;20043;-60
2021/06/15 02:24:50;;;;;;;5.10;2.88;;;;;;;23.19;48.78;101958.59;5070770;28;20025;-59
2021/06/15 02:27:19;;;;;;;4.95;2.85;;;;;;;23.18;48.74;101951.63;5071331;28;20020;-60
2021/06/15 02:29:44;;;;;;;5.20;2.92;;;;;;;23.18;48.69;101960.44;5070935;28;20025;-59
2021/06/15 02:32:13;;;;;;;6.00;3.13;;;;;;;23.17;48.66;101958.72;5075068;28;20025;-60
2021/06/15 02:34:47;;;;;;;5.13;2.95;;;;;;;23.17;48.62;101956.06;5075446;28;20434;-59
2021/06/15 02:37:18;;;;;;;4.88;2.80;;;;;;;23.17;48.48;101955.25;5074265;28;20055;-59
2021/06/15 02:39:45;;;;;;;6.03;3.05;;;;;;;23.17;48.74;101958.72;5075529;28;20102;-59
2021/06/15 02:42:13;;;;;;;5.07;2.90;;;;;;;23.17;48.60;101955.25;5075086;28;20099;-59
2021/06/15 02:44:43;;;;;;;4.45;2.67;;;;;;;23.16;48.49;101959.72;5074664;28;20138;-60
2021/06/15 02:47:10;;;;;;;4.93;2.85;;;;;;;23.16;48.57;101954.41;5074776;28;20165;-58
2021/06/15 02:49:43;;;;;;;4.97;2.80;;;;;;;23.16;48.56;101958.88;5074967;28;20071;-59
2021/06/15 02:52:33;;;;;;;4.80;2.83;;;;;;;23.16;48.55;101956.22;5074196;28;20029;-58
2021/06/15 02:55:12;;;;;;;4.05;2.53;;;;;;;23.15;48.67;101951.88;5074985;28;20038;-58
2021/06/15 02:57:40;;;;;;;4.55;2.63;;;;;;;23.14;48.78;101951.03;5074743;28;20085;-57
2021/06/15 03:00:08;;;;;;;4.65;2.95;;;;;;;23.13;48.84;101940.50;5073855;28;20039;-59
2021/06/15 03:02:33;;;;;;;5.30;2.75;;;;;;;23.14;48.65;101943.03;5074676;28;20452;-58
2021/06/15 03:04:58;;;;;;;4.85;3.08;;;;;;;23.13;48.66;101940.50;5074215;28;20021;-58
2021/06/15 03:07:24;;;;;;;4.10;2.50;;;;;;;23.14;48.88;101942.22;5074644;28;20024;-58
2021/06/15 03:09:49;;;;;;;4.65;2.80;;;;;;;23.14;48.69;101945.69;5074814;28;20265;-59
2021/06/15 03:12:21;;;;;;;5.55;2.88;;;;;;;23.11;48.71;101942.47;5073536;28;20338;-58
2021/06/15 03:14:54;;;;;;;4.47;2.90;;;;;;;23.13;48.66;101949.34;5074292;28;20527;-58
2021/06/15 03:17:24;;;;;;;5.40;2.80;;;;;;;23.13;48.61;101948.50;5074367;28;20024;-58
2021/06/15 03:20:09;;;;;;;4.45;2.40;;;;;;;23.12;49.01;101955.63;5073753;28;20358;-59
2021/06/15 03:22:47;;;;;;;4.55;2.63;;;;;;;23.08;48.71;101951.56;5074435;28;20031;-59
2021/06/15 03:25:15;;;;;;;5.20;2.65;;;;;;;23.11;48.59;101955.75;5074176;28;20093;-58
2021/06/15 03:28:06;;;;;;;4.45;2.75;;;;;;;23.13;48.79;101953.81;5073649;28;20021;-60
2021/06/15 03:30:35;;;;;;;5.22;2.92;;;;;;;23.10;48.34;101952.28;5074465;28;20025;-58
2021/06/15 03:33:08;;;;;;;5.18;2.85;;;;;;;23.11;48.90;101953.09;5073337;28;20024;-58
2021/06/15 03:35:37;;;;;;;4.93;2.70;;;;;;;23.10;48.72;101954.94;5074129;28;20037;-58
2021/06/15 03:38:04;;;;;;;4.85;2.75;;;;;;;23.09;48.66;101955.88;5073786;28;20436;-58
2021/06/15 03:40:33;;;;;;;4.07;2.40;;;;;;;23.10;48.66;101959.41;5073444;28;20070;-59
2021/06/15 03:42:59;;;;;;;4.18;2.60;;;;;;;23.10;48.79;101964.72;5074229;28;20107;-59
2021/06/15 03:45:28;;;;;;;4.18;2.53;;;;;;;23.10;48.57;101967.38;5073685;28;20029;-59
2021/06/15 03:47:55;;;;;;;5.05;2.58;;;;;;;23.09;48.64;101979.81;5073278;28;20025;-58
2021/06/15 03:50:22;;;;;;;4.60;2.90;;;;;;;23.09;48.55;101974.50;5072481;28;20032;-58
2021/06/15 03:52:51;;;;;;;4.35;2.50;;;;;;;23.09;48.65;101971.00;5074183;28;20028;-58
2021/06/15 03:55:20;;;;;;;4.53;2.70;;;;;;;23.08;48.65;101972.84;5072856;28;20020;-58
2021/06/15 03:57:48;;;;;;;5.18;2.92;;;;;;;23.09;48.64;101982.47;5074082;28;20165;-59
2021/06/15 04:00:17;;;;;;;4.68;2.80;;;;;;;23.09;48.52;101979.00;5073617;28;20028;-58
2021/06/15 04:02:46;;;;;;;4.80;2.53;;;;;;;23.09;48.58;101984.31;5073019;28;20034;-58
2021/06/15 04:05:14;;;;;;;4.20;2.67;;;;;;;23.07;48.66;101984.41;5073214;28;20464;-58
2021/06/15 04:07:42;;;;;;;6.00;2.58;;;;;;;23.07;48.63;101979.09;5073799;28;20035;-59
2021/06/15 04:10:10;;;;;;;5.28;2.65;;;;;;;23.08;48.62;101987.94;5072658;28;20400;-59
2021/06/15 04:12:36;;;;;;;4.38;2.67;;;;;;;23.07;48.57;101996.88;5073478;28;20027;-59
2021/06/15 04:15:02;;;;;;;4.20;2.50;;;;;;;23.08;48.81;101998.56;5072976;28;20044;-58
2021/06/15 04:17:36;;;;;;;4.85;2.70;;;;;;;23.07;48.46;101992.38;5072645;28;20428;-59
2021/06/15 04:20:03;;;;;;;;;;;;;;;23.06;48.48;101988.03;5073558;28;20032;-59
2021/06/15 04:22:33;;;;;;;4.45;2.70;;;;;;;23.07;48.56;101995.03;5072347;28;20429;-58
2021/06/15 04:25:05;;;;;;;4.63;2.88;;;;;;;23.06;48.49;101998.66;5073526;28;20059;-59
2021/06/15 04:27:31;;;;;;;3.70;2.50;;;;;;;23.06;48.62;102000.47;5073191;28;20384;-59
2021/06/15 04:29:57;;;;;;;5.20;2.45;;;;;;;23.06;48.50;102006.63;5072519;28;20097;-59
2021/06/15 04:32:32;;;;;;;5.03;2.72;;;;;;;23.06;48.48;102000.47;5072815;28;20021;-59
2021/06/15 04:35:05;;;;;;;4.43;2.70;;;;;;;23.06;48.66;101997.81;5072988;28;20024;-59
2021/06/15 04:37:33;;;;;;;4.57;2.70;;;;;;;23.06;48.68;101989.84;5072272;28;20101;-59
2021/06/15 04:40:11;;;;;;;4.50;2.42;;;;;;;23.06;48.47;101992.50;5072863;28;20027;-59
2021/06/15 04:42:58;;;;;;;3.88;2.22;;;;;;;23.05;48.50;101994.34;5072999;28;20037;-58
2021/06/15 04:45:35;;;;;;;4.97;2.28;;;;;;;23.05;48.66;101991.69;5070649;28;20135;-59
2021/06/15 04:48:09;;;;;;;5.40;2.40;;;;;;;23.05;48.43;101990.81;5073032;28;20120;-58
2021/06/15 04:50:35;;;;;;;4.07;2.33;;;;;;;23.04;48.47;101992.63;5071732;28;20035;-59
2021/06/15 04:53:03;;;;;;;4.80;2.60;;;;;;;23.04;48.43;101989.97;5071666;28;20080;-59
2021/06/15 04:55:34;;;;;;;4.40;2.42;;;;;;;23.05;48.45;101988.16;5072391;28;20040;-58
2021/06/15 04:58:05;;;;;;;4.07;2.28;;;;;;;23.05;48.53;101996.13;5071248;28;20043;-58
2021/06/15 05:00:32;;;;;;;4.07;2.05;;;;;;;23.05;48.34;101998.78;5071930;28;20021;-59
2021/06/15 05:02:58;;;;;;;4.07;2.28;;;;;;;23.04;48.12;101984.66;5072220;28;20043;-59
2021/06/15 05:05:24;;;;;;;4.05;2.10;;;;;;;23.04;48.35;101997.94;5071542;28;20029;-60
2021/06/15 05:08:01;;;;;;;5.22;2.40;;;;;;;23.05;48.40;102002.31;5072442;28;20017;-58
2021/06/15 05:10:30;;;;;;;4.13;2.40;;;;;;;23.04;48.37;102000.63;5072585;28;20081;-58
2021/06/15 05:12:56;;;;;;;3.85;2.20;;;;;;;23.04;48.38;102007.75;5071618;28;20020;-60
2021/06/15 05:15:26;;;;;;;3.40;1.83;;;;;;;23.05;48.35;102012.06;5071826;28;20087;-59
2021/06/15 05:17:54;;;;;;;3.70;2.10;;;;;;;23.04;48.21;102018.38;5072255;28;20017;-59
2021/06/15 05:20:23;;;;;;;5.47;2.58;;;;;;;23.04;48.18;102029.03;5071385;28;20028;-58
2021/06/15 05:22:59;;;;;;;3.90;2.20;;;;;;;23.04;48.24;102023.72;5072386;28;20112;-58
2021/06/15 05:25:25;;;;;;;5.82;2.15;;;;;;;23.01;48.24;102024.78;5071139;28;20028;-57
2021/06/15 05:27:51;;;;;;;4.25;2.28;;;;;;;23.03;48.28;102038.78;5071863;28;20035;-59
2021/06/15 05:30:20;;;;;;;3.80;2.13;;;;;;;23.01;48.26;102030.13;5071695;28;20020;-58
2021/06/15 05:32:45;;;;;;;3.38;2.00;;;;;;;23.03;48.23;102035.31;5071306;28;20028;-58
2021/06/15 05:35:11;;;;;;;4.18;2.10;;;;;;;23.01;48.25;102030.94;5071863;28;20038;-58
2021/06/15 05:37:37;;;;;;;3.42;2.00;;;;;;;23.02;48.18;102034.47;5072292;28;20029;-59
2021/06/15 05:40:03;;;;;;;5.20;2.10;;;;;;;23.03;48.13;102043.28;5071095;28;20446;-59
2021/06/15 05:42:28;;;;;;;4.25;2.10;;;;;;;23.03;48.08;102048.59;5071986;28;20108;-57
2021/06/15 05:44:55;;;;;;;4.47;2.38;;;;;;;23.02;47.99;102050.41;5072240;28;20031;-57
2021/06/15 05:47:20;;;;;;;4.32;2.30;;;;;;;23.00;48.38;102047.03;5070927;28;20052;-57
2021/06/15 05:49:45;;;;;;;4.10;2.20;;;;;;;23.01;48.05;102056.69;5072158;28;20040;-59
2021/06/15 05:52:15;;;;;;;3.90;2.20;;;;;;;23.00;48.10;102050.53;5071805;28;20020;-59
2021/06/15 05:54:40;;;;;;;4.20;2.15;;;;;;;22.99;47.85;102042.69;5070858;28;20032;-59
2021/06/15 05:57:06;;;;;;;4.25;2.17;;;;;;;22.99;47.71;102048.00;5071285;28;20021;-57
2021/06/15 05:59:32;;;;;;;5.05;2.28;;;;;;;22.99;47.63;102037.38;5071676;28;20440;-57
2021/06/15 06:01:58;;;;;;;3.92;2.15;;;;;;;22.98;47.54;102047.16;5071025;28;20029;-57
2021/06/15 06:04:29;;;;;;;5.88;2.50;;;;;;;22.97;47.42;102037.50;5071462;28;20067;-56
2021/06/15 06:09:44;;;;;;;5.65;2.40;;;;;;;22.95;47.26;102046.56;5064496;28;20044;-60
2021/06/15 06:12:10;;;;;;;4.75;2.40;;;;;;;22.92;46.94;102039.72;5075585;28;20017;-60
2021/06/15 06:14:35;;;;;;;6.93;2.53;;;;;;;22.92;46.91;102047.69;5075617;28;20063;-59
2021/06/15 06:17:02;;;;;;;4.90;2.60;;;;;;;22.94;46.78;102044.88;5075120;28;20383;-58
2021/06/15 06:19:28;;;;;;;6.47;2.60;;;;;;;22.93;46.77;102062.66;5075599;28;20035;-58
2021/06/15 06:21:54;;;;;;;5.45;2.90;;;;;;;22.93;46.66;102059.16;5074779;28;20040;-58
2021/06/15 06:24:19;;;;;;;6.63;2.50;;;;;;;22.94;46.67;102060.81;5075225;28;20020;-59
2021/06/15 06:26:52;;;;;;;5.10;2.50;;;;;;;22.93;46.34;102053.84;5075785;28;20103;-58
2021/06/15 06:29:18;;;;;;;5.35;2.30;;;;;;;22.93;46.42;102061.81;5074897;28;20025;-59
2021/06/15 06:31:44;;;;;;;4.88;2.90;;;;;;;22.94;46.37;102060.81;5075889;28;20025;-58
2021/06/15 06:34:09;;;;;;;6.60;2.38;;;;;;;22.96;46.30;102067.72;5075217;28;20383;-58
2021/06/15 06:36:35;;;;;;;4.45;2.38;;;;;;;22.96;46.37;102061.56;5074688;28;20020;-56
2021/06/15 06:39:08;;;;;;;4.95;2.50;;;;;;;22.96;46.19;102059.72;5075141;28;20432;-58
2021/06/15 06:41:35;;;;;;;4.63;2.33;;;;;;;22.96;46.12;102064.22;5075391;28;20476;-57
2021/06/15 06:44:00;;;;;;;5.85;2.13;;;;;;;22.94;45.91;102068.78;5056349;28;20037;-58
2021/06/15 06:46:26;;;;;;;5.57;2.55;;;;;;;22.93;45.61;102070.63;5074887;28;20085;-58
2021/06/15 06:48:51;;;;;;;4.78;2.30;;;;;;;22.93;45.24;102075.09;5075190;28;20025;-58
2021/06/15 06:51:18;;;;;;;4.95;2.03;;;;;;;22.93;45.17;102075.09;5074064;28;20104;-59
2021/06/15 06:53:44;;;;;;;4.47;2.40;;;;;;;22.92;44.94;102068.09;5075079;28;20051;-57
2021/06/15 06:56:09;;;;;;;5.55;2.03;;;;;;;22.91;44.78;102067.25;5074816;28;20134;-59
2021/06/15 06:58:34;;;;;;;5.68;2.10;;;;;;;22.92;44.39;102074.28;5074401;28;20048;-58
2021/06/15 07:01:01;;;;;;;5.20;2.10;;;;;;;22.90;44.17;102076.19;5074907;28;20456;-59
2021/06/15 07:03:26;;;;;;;3.88;1.85;;;;;;;22.85;43.85;102077.56;5074867;28;20531;-59
2021/06/15 07:05:51;;;;;;;9.63;2.10;;;;;;;22.86;43.57;102081.88;5073999;28;20135;-58
2021/06/15 07:08:17;;;;;;;4.15;1.70;;;;;;;22.83;43.59;102078.50;5074550;28;20096;-59
2021/06/15 07:10:42;;;;;;;4.30;1.65;;;;;;;22.81;43.44;102083.13;5075005;28;20048;-59
2021/06/15 07:13:07;;;;;;;4.60;1.77;;;;;;;22.79;43.32;102087.69;5073861;28;20108;-59
2021/06/15 07:15:33;;;;;;;5.50;1.98;;;;;;;22.77;43.34;102086.16;5074278;28;20400;-58
2021/06/15 07:17:59;;;;;;;7.97;2.00;;;;;;;22.69;42.76;102078.81;5073479;28;20123;-58
2021/06/15 07:20:24;;;;;;;4.43;2.25;;;;;;;22.57;42.45;102083.31;5074264;28;20281;-59
2021/06/15 07:22:49;;;;;;;4.35;1.90;;;;;;;22.46;42.84;102086.84;5074859;28;20020;-58
2021/06/15 07:25:15;;;;;;;4.65;2.00;;;;;;;22.38;42.90;102086.59;5074951;28;20029;-59
2021/06/15 07:27:41;;;;;;;5.53;1.98;;;;;;;22.28;43.21;102078.47;5076308;28;20456;-60
2021/06/15 07:30:07;;;;;;;4.65;2.05;;;;;;;22.23;43.23;102079.81;5074804;28;20108;-61
2021/06/15 07:32:32;;;;;;;3.97;1.70;;;;;;;22.15;43.40;102087.56;5075194;28;20047;-60
2021/06/15 07:34:58;;;;;;;5.03;1.90;;;;;;;22.10;43.34;102085.25;5078362;28;20024;-60
2021/06/15 07:37:26;;;;;;;4.85;1.95;;;;;;;22.03;43.34;102087.56;5078705;28;20033;-59
2021/06/15 07:39:52;;;;;;;4.75;1.90;;;;;;;22.01;43.51;102093.94;5077206;28;20021;-59
2021/06/15 07:42:17;;;;;;;4.28;1.95;;;;;;;21.98;43.39;102092.38;5074121;28;20024;-60
2021/06/15 07:44:46;;;;;;;4.88;2.10;;;;;;;22.00;43.65;102105.50;5074918;28;20464;-61
2021/06/15 07:47:11;;;;;;;5.80;2.10;;;;;;;22.05;43.56;102092.75;5076955;28;20502;-58
2021/06/15 07:49:39;;;;;;;5.28;2.15;;;;;;;22.08;43.53;102103.13;5078176;28;20021;-60
2021/06/15 07:52:04;;;;;;;4.38;1.80;;;;;;;22.12;43.33;102104.56;5078533;28;20368;-61
2021/06/15 07:54:32;;;;;;;4.70;2.30;;;;;;;22.14;43.67;102094.66;5076252;28;20107;-60
2021/06/15 07:56:58;;;;;;;6.15;2.55;;;;;;;22.17;44.14;102101.53;5077913;28;20048;-61
2021/06/15 07:59:23;;;;;;;5.45;2.10;;;;;;;22.20;43.92;102093.34;5074244;28;20061;-61
2021/06/15 08:01:48;;;;;;;4.90;2.28;;;;;;;22.22;44.17;102094.91;5073872;28;20013;-60
2021/06/15 08:04:15;;;;;;;5.78;2.05;;;;;;;22.28;44.31;102081.13;5073962;28;20020;-59
2021/06/15 08:06:41;;;;;;;5.60;1.80;;;;;;;22.34;43.98;102089.63;5074020;28;20035;-58
2021/06/15 08:09:06;;;;;;;4.28;1.90;;;;;;;22.38;44.15;102088.41;5072934;28;20091;-58
2021/06/15 08:11:34;;;;;;;5.85;2.00;;;;;;;22.41;44.18;102083.72;5074364;28;20074;-59
2021/06/15 08:14:00;;;;;;;4.45;2.10;;;;;;;22.46;44.33;102094.81;5074261;28;20361;-59
2021/06/15 08:16:25;;;;;;;6.78;2.55;;;;;;;22.48;44.42;102093.81;5072351;28;20044;-59
2021/06/15 08:18:50;;;;;;;7.65;2.67;;;;;;;22.41;44.53;102089.03;5073678;28;20365;-60
2021/06/15 08:21:17;;;;;;;4.85;2.08;;;;;;;22.37;44.86;102086.72;5072535;28;20442;-59
2021/06/15 08:23:42;;;;;;;7.78;2.42;;;;;;;22.35;44.95;102088.63;5073711;28;20035;-59
2021/06/15 08:26:08;;;;;;;4.70;2.47;;;;;;;22.27;44.96;102094.53;5073510;28;20025;-59
2021/06/15 08:28:33;;;;;;;5.03;2.30;;;;;;;22.20;44.90;102096.00;5071841;28;20709;-59
2021/06/15 08:30:59;;;;;;;5.35;2.17;;;;;;;22.19;45.11;102094.28;5073508;28;20032;-59
2021/06/15 08:33:25;;;;;;;5.38;2.30;;;;;;;22.19;45.11;102103.13;5073307;28;20017;-58
2021/06/15 08:35:50;;;;;;;5.00;2.10;;;;;;;22.21;44.91;102098.53;5072809;28;20030;-60
2021/06/15 08:38:18;;;;;;;6.40;2.08;;;;;;;22.19;44.43;102096.94;5073080;28;20048;-57
2021/06/15 08:40:48;;;;;;;3.90;1.92;;;;;;;22.18;44.53;102090.81;5073235;28;20103;-58
2021/06/15 08:43:14;;;;;;;5.13;1.90;;;;;;;22.21;43.93;102087.06;5072288;28;20027;-59
2021/06/15 08:45:41;;;;;;;3.75;1.73;;;;;;;22.22;44.62;102081.66;5072970;28;20021;-58
2021/06/15 08:48:07;;;;;;;4.05;1.92;;;;;;;22.26;44.49;102092.84;5072629;28;20028;-59
2021/06/15 08:50:33;;;;;;;3.95;1.90;;;;;;;22.24;43.70;102073.56;5072311;28;20046;-58
2021/06/15 08:52:58;;;;;;;5.15;1.98;;;;;;;22.26;44.25;102096.34;5073440;28;20124;-60
2021/06/15 08:55:33;;;;;;;4.93;1.80;;;;;;;22.27;43.93;102086.56;5073405;28;20044;-60
2021/06/15 08:58:20;;;;;;;3.97;1.73;;;;;;;22.28;43.32;102075.81;5072104;28;20476;-59
2021/06/15 09:00:45;;;;;;;3.45;1.45;;;;;;;22.31;43.74;102076.59;5072942;28;20120;-59
2021/06/15 09:03:14;;;;;;;3.40;1.60;;;;;;;22.31;44.53;102069.47;5072611;28;20477;-58
2021/06/15 09:05:41;;;;;;;3.72;1.55;;;;;;;22.31;44.06;102069.47;5072179;28;20036;-59
2021/06/15 09:08:09;;;;;;;3.97;1.40;;;;;;;22.33;44.24;102070.16;5072327;28;20035;-59
2021/06/15 09:10:38;;;;;;;4.43;1.80;;;;;;;22.35;44.42;102076.22;5072236;28;20039;-58
2021/06/15 09:13:04;;;;;;;4.38;1.90;;;;;;;22.34;44.42;102079.84;5054391;28;20021;-58
2021/06/15 09:15:30;;;;;;;3.67;1.65;;;;;;;22.37;44.66;102082.25;5072370;28;20112;-57
2021/06/15 09:17:56;;;;;;;4.07;1.65;;;;;;;22.41;44.91;102085.50;5071986;28;20031;-60
2021/06/15 09:20:31;;;;;;;5.93;1.85;;;;;;;22.44;44.63;102083.44;5072553;28;20044;-60
2021/06/15 09:23:04;;;;;;;5.30;1.60;;;;;;;22.46;44.45;102086.84;5073267;28;20017;-59
2021/06/15 09:25:30;;;;;;;4.28;1.52;;;;;;;22.50;44.63;102087.41;5072035;28;20028;-59
2021/06/15 09:27:58;;;;;;;4.45;1.60;;;;;;;22.53;44.61;102084.50;5072759;28;20029;-59
2021/06/15 09:30:29;;;;;;;3.85;1.52;;;;;;;22.57;44.24;102082.44;5072736;28;20111;-60
2021/06/15 09:32:54;;;;;;;4.25;1.80;;;;;;;22.60;44.31;102079.53;5073357;28;20429;-59
2021/06/15 09:35:28;;;;;;;4.22;1.70;;;;;;;22.61;44.01;102086.56;5072165;28;20031;-59
2021/06/15 09:38:00;;;;;;;3.33;1.48;;;;;;;22.61;44.00;102081.25;5072516;28;20033;-59
2021/06/15 09:40:28;;;;;;;4.53;1.50;;;;;;;22.62;43.82;102077.59;5071328;28;20025;-59
2021/06/15 09:43:03;;;;;;;4.65;1.60;;;;;;;22.64;43.61;102081.00;5073101;28;20028;-58
2021/06/15 09:45:39;;;;;;;3.38;1.40;;;;;;;22.62;43.74;102080.25;5072322;28;20020;-58
2021/06/15 09:48:52;;;;;;;3.63;1.40;;;;;;;22.63;43.89;102074.81;5071840;28;20021;-59
2021/06/15 09:51:18;;;;;;;4.30;1.40;;;;;;;22.66;43.81;102079.06;5058519;28;20037;-58
2021/06/15 09:53:58;;;;;;;5.28;1.30;;;;;;;22.73;44.10;102090.00;5071411;28;20027;-60
2021/06/15 09:56:23;;;;;;;4.85;1.65;;;;;;;22.79;43.86;102085.03;5071221;28;20058;-60
2021/06/15 09:58:54;;;;;;;5.32;1.38;;;;;;;22.86;43.96;102084.53;5072711;28;20512;-59
2021/06/15 10:01:33;;;;;;;3.03;1.40;;;;;;;22.89;43.66;102068.34;5071426;28;20025;-60
2021/06/15 10:04:20;;;;;;;3.85;1.55;;;;;;;22.91;42.75;102074.41;5072128;28;20032;-58
2021/06/15 10:06:54;;;;;;;4.55;1.58;;;;;;;22.89;42.39;102073.66;5071211;28;20021;-58
2021/06/15 10:09:29;;;;;;;4.53;1.38;;;;;;;22.88;42.42;102086.13;5071560;28;20384;-59
2021/06/15 10:12:00;;;;;;;5.32;1.25;;;;;;;22.86;42.01;102073.91;5072103;28;20025;-59
2021/06/15 10:14:27;;;;;;;4.22;1.38;;;;;;;22.87;41.69;102079.09;5070725;28;20035;-56
2021/06/15 10:16:54;;;;;;;3.97;1.35;;;;;;;22.83;41.28;102070.53;5071540;28;20124;-57
2021/06/15 10:19:21;;;;;;;5.07;1.35;;;;;;;22.86;41.15;102081.88;5071484;28;20446;-57
2021/06/15 10:21:47;;;;;;;3.30;1.10;;;;;;;22.85;41.61;102081.03;5070868;28;20361;-56
2021/06/15 10:24:14;;;;;;;3.70;1.27;;;;;;;22.85;41.36;102074.91;5071381;28;20043;-57
2021/06/15 10:26:40;;;;;;;2.97;1.20;;;;;;;22.87;41.19;102065.81;5071719;28;20376;-58
2021/06/15 10:29:12;;;;;;;3.83;1.10;;;;;;;22.89;41.07;102071.00;5070389;28;20459;-59
2021/06/15 10:31:38;;;;;;;3.50;1.10;;;;;;;22.89;40.93;102069.22;5071536;28;20063;-58
2021/06/15 10:34:04;;;;;;;5.10;1.45;;;;;;;22.85;41.03;102062.44;5070875;28;20070;-57
2021/06/15 10:36:47;;;;;;;3.08;1.10;;;;;;;22.89;40.93;102066.53;5071043;28;20020;-57
2021/06/15 10:39:40;;;;;;;3.13;1.00;;;;;;;22.92;41.00;102068.09;5071293;28;20078;-59
2021/06/15 10:42:22;;;;;;;2.58;1.05;;;;;;;22.93;40.60;102051.19;5067870;28;20395;-61
2021/06/15 10:45:13;;;;;;;3.90;1.08;;;;;;;22.92;40.92;102046.81;5071388;28;20021;-57
2021/06/15 10:48:04;;;;;;;4.75;1.00;;;;;;;22.92;40.77;102044.16;5071246;28;20055;-58
2021/06/15 10:50:52;;;;;;;3.15;0.98;;;;;;;22.95;40.52;102047.41;5070524;28;20036;-59
2021/06/15 10:53:31;;;;;;;4.03;0.90;;;;;;;22.96;40.85;102049.09;5075210;28;20074;-58
2021/06/15 10:56:03;;;;;;;4.80;0.98;;;;;;;22.99;41.03;102046.19;5075140;28;20079;-58
2021/06/15 10:58:28;;;;;;;3.05;1.00;;;;;;;23.00;41.51;102045.22;5075003;28;20021;-58
2021/06/15 11:01:17;;;;;;;2.57;0.90;;;;;;;23.02;41.41;102042.44;5074928;28;20086;-57
2021/06/15 11:03:55;;;;;;;2.28;0.90;;;;;;;23.04;41.56;102040.50;5074417;28;20029;-56
2021/06/15 11:06:26;;;;;;;4.80;0.85;;;;;;;23.06;41.54;102041.19;5074827;28;20029;-58
2021/06/15 11:09:04;;;;;;;2.38;0.73;;;;;;;23.09;41.60;102048.13;5075027;28;20031;-57
2021/06/15 11:11:34;;;;;;;2.10;0.80;;;;;;;23.09;41.49;102037.47;5074094;28;20055;-57
2021/06/15 11:14:21;;;;;;;2.38;0.75;;;;;;;23.11;41.48;102039.03;5074798;28;20024;-56
2021/06/15 11:16:51;;;;;;;2.30;0.90;;;;;;;23.12;41.71;102035.41;5074777;28;20036;-58
2021/06/15 11:19:20;;;;;;;2.40;0.70;;;;;;;23.15;41.63;102037.81;5073948;28;20078;-56
2021/06/15 11:21:50;;;;;;;2.25;0.70;;;;;;;23.18;41.56;102031.41;5074678;28;20440;-57
2021/06/15 11:24:36;;;;;;;2.13;1.10;;;;;;;23.20;41.48;102039.25;5073579;28;20028;-57
2021/06/15 11:27:31;;;;;;;2.40;0.80;;;;;;;23.20;41.82;102033.94;5063704;28;20494;-58
2021/06/15 11:29:59;;;;;;;;;;;;;;;23.23;41.73;102031.00;5075517;28;20046;-58
2021/06/15 11:32:26;;;;;;;1.77;0.70;;;;;;;23.24;41.65;102027.34;5073635;28;19919;-57
2021/06/15 11:34:54;;;;;;;3.67;0.70;;;;;;;23.24;41.66;102030.00;5074372;28;20476;-59
2021/06/15 11:37:27;;;;;;;2.17;0.80;;;;;;;23.24;41.83;102022.91;5074248;28;20020;-58
2021/06/15 11:39:53;;;;;;;2.22;0.82;;;;;;;23.26;41.79;102028.09;5073914;28;20016;-57
2021/06/15 11:42:24;;;;;;;2.58;0.68;;;;;;;23.27;41.84;102038.56;5074004;28;20017;-58